Ride Results

Mooloo Challenge (10-07-2005)
Ride distance: 80.0 km

Outcomes - Mooloo Challenge (10-07-2005)
Division No. of Entries Retired / DNE Completed Withdrawn Ineligible V/O Percentage Completed
HW 17 - 16 - - 1 94.12%
MW 33 - 25 4 - 4 75.76%
LW 13 - 12 1 - - 92.31%
JN 9 - 7 - - 2 77.78%
Totals 72 - 60 5 - 7 83.33%
Results - Mooloo Challenge (10-07-2005)
No. Rider Horse Place Time Leg Speeds Total
Km/Hr
H/R bpm
Heavyweight
66 Matthew Sample La Mancha Archduke 1 4:25:00 15.1, 22.4 18.11 33, 39, 49 (Avg:44)
11 Elizabeth Paton Freelance Gaytu Boysey 2 4:27:00 19.0, 17.0 17.98 28, 40, 43 (Avg:41)
13 Sharon Russell Rafyke 2 4:27:00 19.0, 17.0 17.98 29, 46, 45 (Avg:45)
8 John Simpson Charaway Chaivu 4 4:51:00 15.9, 17.0 16.49 30, 38, 42 (Avg:40)
63 Alwyn Torenbeek Tarwarri Sharhim 5 5:13:00 15.0, 15.5 15.34 29, 38, 44 (Avg:41)
54 Colleen Shaw Azerash Shahreza 6 5:38:00 18.1, 11.6 14.20 33, 43, 42 (Avg:42)
12 Selwyn Nix Bint Liberty 7 6:00:00 14.1, 12.6 13.33 34, 44, 46 (Avg:45)
59 Robert Fenech Count Lea 8 6:19:00 12.7, 12.5 12.66 47, 41, 52 (Avg:46)
49 Adam Mellers Rathowen Morse 9 6:42:00 13.3, 10.8 11.94 34, 46, 53 (Avg:49)
9 David Hampson Little Egypt Storm Boy 10 6:57:00 13.1, 10.2 11.51 38, 46, 53 (Avg:49)
73 Graham Ellison Zaccheus 11 7:07:00 12.9, 9.9 11.24 28, 41, 54 (Avg:47)
45 Ven Grasso Woodbourne Edmund 12 7:12:00 12.0, 10.3 11.11 37, 40, 44 (Avg:42)
44 James Sheahan Manana Mizan 12 7:12:00 12.0, 10.3 11.11 40, 53, 52 (Avg:52)
69 Helen Moore Silver Stin 14 7:16:00 11.7, 10.3 11.01 35, 43, 48 (Avg:45)
43 Greg Garred Shannonwood Sub 15 7:39:00 12.1, 9.1 10.46 39, 46, 46 (Avg:46)
5 Frank Scadding Windcraft Kalu 15 7:39:00 11.5, 9.5 10.46 27, 38, 51 (Avg:44)
46 Peter Birch Hillbrae May Lame L2 0:00:00 19.0, 18.0 - 28, 36, 47 (Avg:41)
Middleweight
22 Kerrie McAuliffe Gurangada Sundance 1 4:07:00 19.0, 19.8 19.43 31, 37, 39 (Avg:38)
37 Jean Taylor Nerim 1 4:07:00 19.0, 19.8 19.43 32, 37, 40 (Avg:38)
71 Michael Taylor Brookleigh Casper 3 4:25:00 15.1, 22.4 18.11 30, 39, 43 (Avg:41)
48 Adrian Brickley Sukis Keeper 4 4:52:00 18.4, 14.8 16.44 34, 43, 42 (Avg:42)
3 Daniele O'Loughlin Sasam 5 4:54:00 19.0, 14.2 16.33 30, 39, 43 (Avg:41)
60 Robert Sutton Zenith Park Quigley 5 4:54:00 19.0, 14.2 16.33 34, 43, 40 (Avg:41)
16 Robin Stuer Milora Park Boomer 7 5:13:00 15.7, 14.9 15.34 32, 38, 49 (Avg:43)
14 Jackie Swan Longrun Anika 8 5:23:00 15.7, 14.0 14.86 29, 38, 41 (Avg:39)
55 Julie Kemp Al Baraq 9 5:38:00 15.0, 13.4 14.20 28, 45, 50 (Avg:47)
1 Ouida Ratapu Bashan Malachi 9 5:38:00 14.9, 13.4 14.20 39, 41, 48 (Avg:44)
4 Lynne Drinkwater Red Gum Sundance 11 5:49:00 15.0, 12.6 13.75 32, 41, 49 (Avg:45)
20 Raewyn Carter Nazelle 12 5:55:00 13.7, 13.3 13.52 28, 40, 41 (Avg:40)
21 Sioux Reid Midu Ariel 12 5:55:00 13.7, 13.3 13.52 28, 37, 41 (Avg:39)
50 Trent Brickley Kadeen 14 6:00:00 13.3, 13.3 13.33 37, 49, 52 (Avg:50)
6 Libby Nichols Tallaroon Crystal Rose 14 6:00:00 13.3, 13.3 13.33 39, 43, 59 (Avg:51)
56 Peter Pike Mt Eerwah Shazaam 14 6:00:00 13.3, 13.3 13.33 37, 39, 46 (Avg:42)
41 Rod Strahan Kasam 14 6:00:00 13.3, 13.3 13.33 36, 39, 44 (Avg:41)
35 Carolyn Strahan Kasbah Kid 14 6:00:00 13.3, 13.3 13.33 40, 45, 57 (Avg:51)
15 Marion Lengronne Deep Forest Contest 19 6:25:00 13.3, 11.7 12.47 31, 46, 49 (Avg:47)
38 Robyn Pembroke Mt Eerwah Silverado 19 6:25:00 13.1, 11.8 12.47 25, 33, 40 (Avg:36)
61 Susan Renfree Gundiwidgee Bandit 21 6:33:00 12.9, 11.5 12.21 33, 48, 46 (Avg:47)
19 Sue Crockett Alamo Minelli 22 7:12:00 12.8, 9.7 11.11 35, 45, 57 (Avg:51)
17 Chris Enstram Millers Park Tahlia 22 7:12:00 12.8, 9.7 11.11 38, 41, 45 (Avg:43)
26 Bridget Nottle Bullarto Fiorelli 24 7:22:00 11.7, 10.0 10.86 39, 43, 45 (Avg:44)
2 Courtney Schloss Araboona Shireek 24 7:22:00 11.5, 10.2 10.86 35, 46, 55 (Avg:50)
10 John Hampson Eaglemoon Lame L2 0:00:00 13.1, 10.2 - 43, 52, 59 (Avg:55)
47 Sho Hirasawa Midu The Magicianm Heart Rate L2 0:00:00 13.3, 10.6 - 35, 55, 67 (Avg:61)
40 Robin Young Ilanel Shanntann Lame L2 0:00:00 15.7, 15.3 - 31, 44, 45 (Avg:44)
51 Fiona Fenech Kilkivan Msalute Widthdrawn L1 0:00:00 - - 42, 42 (Avg:42)
39 Debbie Forsdike Travelon Lame L1 0:00:00 13.3 - 32, 39 (Avg:39)
42 Jaime Mansbridge Shannonwood Ezar Widthdrawn L1 0:00:00 - - 41, 47 (Avg:47)
24 Paul Rogerson Mt Eerwah Silver Sadaka Widthdrawn L1 0:00:00 - - 29, 40 (Avg:40)
62 David Urquhart Lucas Widthdrawn L1 0:00:00 - - 42, 49 (Avg:49)
Lightweight
18 Anne Jones Tongarra Red Cloud 1 4:27:00 19.0, 17.0 17.98 33, 38, 43 (Avg:40)
34 Kaylea Maher Mylex Sultan 2 5:03:00 15.4, 16.2 15.84 30, 33, 37 (Avg:35)
33 Ashlee Shafer Chiquita 2 5:03:00 15.4, 16.2 15.84 32, 40, 41 (Avg:40)
53 Yvonne Knight Titanium 4 5:49:00 12.4, 15.2 13.75 28, 40, 43 (Avg:41)
67 Clare Fleming Mangueira Moksha 5 6:00:00 13.3, 13.3 13.33 35, 40, 46 (Avg:43)
7 Bridget Macintyre Bella 5 6:00:00 13.3, 13.3 13.33 31, 44, 52 (Avg:48)
23 Ellie Hill Rebecca Joy 7 6:25:00 13.3, 11.7 12.47 33, 37, 45 (Avg:41)
36 Chelsea Moore Thara's Dream 7 6:25:00 13.1, 11.8 12.47 31, 41, 54 (Avg:47)
32 Aanja Hamelink Captain's Creek Cruise 9 6:52:00 11.4, 11.8 11.65 32, 36, 46 (Avg:41)
29 Karen Winkel Red 9 6:52:00 11.4, 11.8 11.65 29, 39, 55 (Avg:47)
57 Angela Hawks Hillbrae Kaszan 11 7:07:00 12.2, 10.3 11.24 36, 32, 43 (Avg:37)
31 Joanne Crittenden Timbertop Tarrah 12 7:22:00 11.5, 10.2 10.86 48, 55, 50 (Avg:52)
72 Neil Hoy Bint Shah Dara Widthdrawn L1 0:00:00 - - 35, 39 (Avg:39)
Junior
25 Sian Reid Mt Eerwah Siridion 1 4:12:00 19.0, 19.0 19.05 30, 39, 40 (Avg:39)
70 Saasha Grogan Brookleigh Maestro 2 6:33:00 13.1, 11.3 12.21 40, 44, 49 (Avg:46)
64 Kelsey Irvine Aquarius Park Chantilly Lace 3 6:43:00 9.7, 15.1 11.91 31, 36, 43 (Avg:39)
65 Tasha Jeremy Coolahlee Park Ranal 4 7:07:00 12.9, 9.9 11.24 34, 34, 41 (Avg:37)
68 Antony Moore Arabcrest Regal Spirit 5 7:16:00 11.7, 10.3 11.01 46, 42, 45 (Avg:43)
27 Emilie Barton Heathfield Annie 6 7:22:00 11.7, 10.0 10.86 36, 47, 52 (Avg:49)
28 Emily O'Shea Shardell Shahbarnah Golden 6 7:22:00 11.7, 10.0 10.86 36, 48, 48 (Avg:48)
52 Amaya Thomas Tallio Muftakher Lame L2 0:00:00 12.7, 13.9 - 35, 43, 52 (Avg:47)
58 Terri Anderson Mithras Emerald Heart Rate L1 0:00:00 12.7 - 33, 58 (Avg:58)